VVDN/DAD METAR and TAF weather

Enter ICAO airport designator
Station Type Date Time Source
VVDN METAR 2022/11/30 17:00 UTC NOAA

VVDN 301700Z 08004KT 9999 SCT013 27/24 Q1014 NOSIG


Station Type Date Time Source
VVDN Decoded METAR 2022/11/30 17:00 UTC NOAA

Da Nang, Vietnam (VVDN) 16-02N 108-11E 7M
Nov 30, 2022 - 12:00 PM EST / 2022.11.30 1700 UTC
Wind: from the E (080 degrees) at 5 MPH (4 KT):0
Visibility: greater than 7 mile(s):0
Sky conditions: partly cloudy
Temperature: 80 F (27 C)
Dew Point: 75 F (24 C)
Relative Humidity: 83%
Pressure (altimeter): 29.94 in. Hg (1014 hPa)
ob: VVDN 301700Z 08004KT 9999 SCT013 27/24 Q1014 NOSIG
cycle: 17

Station Type Date Time Source
VVDN TAF 2022/11/30 12:36 UTC NOAA

TAF VVDN 301100Z 3012/0112 14007KT 9999 SCT015
TEMPO 3020/0101 4500 SHRA SCT013 FEW015CB BKN050
BECMG 0103/0104 36014KT
TEMPO 0104/0106 36015G25KT 3500 TSRA SCT012 FEW015CB BKN050
TEMPO 0106/0112 2000 +SHRA SCT008 FEW015CB BKN040

Example: see airport list